createdAt,value
2017-12-31T00:00:17.348Z,11.2
2017-12-31T00:01:18.752Z,11.3
2017-12-31T00:02:20.158Z,11.2
2017-12-31T00:03:22.665Z,11.3
2017-12-31T00:04:24.073Z,11.3
2017-12-31T00:05:25.544Z,11.3
2017-12-31T00:06:26.946Z,11.3
2017-12-31T00:07:28.353Z,11.3
2017-12-31T00:08:29.759Z,11.2
2017-12-31T00:09:31.307Z,11.2
2017-12-31T00:10:32.757Z,11.2
2017-12-31T00:11:34.113Z,11.2
2017-12-31T00:12:35.626Z,11.2
2017-12-31T00:13:37.054Z,11.2
2017-12-31T00:14:38.458Z,11.2
2017-12-31T00:15:39.947Z,11.3
2017-12-31T00:16:41.381Z,11.3
2017-12-31T00:17:42.786Z,11.3
2017-12-31T00:18:44.268Z,11.3
2017-12-31T00:19:45.674Z,11.3
2017-12-31T00:20:47.151Z,11.4
2017-12-31T00:21:48.555Z,11.3
2017-12-31T00:22:50.030Z,11.3
2017-12-31T00:23:51.442Z,11.3
2017-12-31T00:24:52.929Z,11.3
2017-12-31T00:25:54.347Z,11.3
2017-12-31T00:26:55.997Z,11.4
2017-12-31T00:27:57.407Z,11.3
2017-12-31T00:28:58.877Z,11.3
2017-12-31T00:30:00.293Z,11.4
2017-12-31T00:31:01.788Z,11.4
2017-12-31T00:32:03.191Z,11.2
2017-12-31T00:33:04.644Z,11.2
2017-12-31T00:34:06.048Z,11.3
2017-12-31T00:35:07.526Z,11.3
2017-12-31T00:36:08.927Z,11.3
2017-12-31T00:37:10.403Z,11.3
2017-12-31T00:38:11.807Z,11.3
2017-12-31T00:39:13.283Z,11.3
2017-12-31T00:40:14.679Z,11.3
2017-12-31T00:41:16.186Z,11.3
2017-12-31T00:42:17.588Z,11.3
2017-12-31T00:43:19.045Z,11.3
2017-12-31T00:44:20.450Z,11.3
2017-12-31T00:45:21.924Z,11.3
2017-12-31T00:46:23.331Z,11.4
2017-12-31T00:47:24.738Z,11.3
2017-12-31T00:48:26.260Z,11.3
2017-12-31T00:49:27.664Z,11.3
2017-12-31T00:50:29.067Z,11.2
2017-12-31T00:51:30.611Z,11.2
2017-12-31T00:52:32.010Z,11.2
2017-12-31T00:53:33.422Z,11.3
2017-12-31T00:54:34.891Z,11.2
2017-12-31T00:55:36.296Z,11.2
2017-12-31T00:56:37.735Z,11.3
2017-12-31T00:57:39.208Z,11.3
2017-12-31T00:58:40.616Z,11.2
2017-12-31T00:59:42.015Z,11.2
2017-12-31T01:00:43.527Z,11.3
2017-12-31T01:01:44.931Z,11.2
2017-12-31T01:02:46.331Z,11.2
2017-12-31T01:03:47.851Z,11.1
2017-12-31T01:04:49.265Z,11.1
2017-12-31T01:05:50.668Z,11.2
2017-12-31T01:06:52.187Z,11.1
2017-12-31T01:07:53.582Z,11.1
2017-12-31T01:08:54.998Z,11.1
2017-12-31T01:09:56.499Z,11.1
2017-12-31T01:10:57.902Z,11.1
2017-12-31T01:11:59.308Z,11.1
2017-12-31T01:13:00.824Z,11.1
2017-12-31T01:14:02.236Z,11.1
2017-12-31T01:15:03.702Z,11.0
2017-12-31T01:16:05.107Z,11.1
2017-12-31T01:17:06.576Z,11.1
2017-12-31T01:18:07.980Z,11.1
2017-12-31T01:19:09.383Z,11.1
2017-12-31T01:20:10.892Z,11.1
2017-12-31T01:21:12.299Z,11.0
2017-12-31T01:22:13.708Z,11.1
2017-12-31T01:23:15.219Z,11.1
2017-12-31T01:24:16.621Z,11.1
2017-12-31T01:25:18.023Z,11.1
2017-12-31T01:26:19.540Z,11.1
2017-12-31T01:27:20.944Z,11.0
2017-12-31T01:28:22.344Z,11.1
2017-12-31T01:29:23.862Z,11.0
2017-12-31T01:30:25.264Z,11.0
2017-12-31T01:31:26.685Z,11.0
2017-12-31T01:32:28.181Z,11.0
2017-12-31T01:33:29.583Z,11.0
2017-12-31T01:34:30.987Z,11.0
2017-12-31T01:35:32.502Z,11.0
2017-12-31T01:36:33.906Z,11.0
2017-12-31T01:37:35.331Z,11.1
2017-12-31T01:38:36.924Z,11.0
2017-12-31T01:39:38.334Z,10.9
2017-12-31T01:40:39.738Z,11.1
2017-12-31T01:41:41.349Z,11.1
2017-12-31T01:42:42.750Z,11.0
2017-12-31T01:43:44.153Z,10.9
2017-12-31T01:44:45.670Z,11.0
2017-12-31T01:45:47.071Z,11.0
2017-12-31T01:46:48.476Z,10.9
2017-12-31T01:47:49.992Z,11.0
2017-12-31T01:48:51.406Z,11.0
2017-12-31T01:49:52.807Z,10.9
2017-12-31T01:50:54.313Z,10.9
2017-12-31T01:51:55.715Z,10.9
2017-12-31T01:52:57.116Z,10.9
2017-12-31T01:53:58.630Z,10.9
2017-12-31T01:55:00.039Z,10.9
2017-12-31T01:56:01.441Z,10.9
2017-12-31T01:57:02.952Z,10.9
2017-12-31T01:58:04.356Z,10.9
2017-12-31T01:59:05.760Z,11.0
2017-12-31T02:00:07.276Z,10.8
2017-12-31T02:01:08.713Z,10.8
2017-12-31T02:02:10.083Z,10.9
2017-12-31T02:03:11.598Z,10.9
2017-12-31T02:04:13.000Z,10.9
2017-12-31T02:05:14.476Z,10.9
2017-12-31T02:06:15.880Z,10.8
2017-12-31T02:07:17.360Z,10.9
2017-12-31T02:08:18.761Z,10.8
2017-12-31T02:09:20.169Z,10.8
2017-12-31T02:10:21.681Z,10.8
2017-12-31T02:11:23.081Z,10.9
2017-12-31T02:12:24.492Z,10.8
2017-12-31T02:13:26.002Z,10.8
2017-12-31T02:14:27.405Z,10.9
2017-12-31T02:15:28.893Z,10.9
2017-12-31T02:16:30.300Z,10.8
2017-12-31T02:17:31.763Z,10.9
2017-12-31T02:18:33.167Z,10.8
2017-12-31T02:19:34.569Z,10.9
2017-12-31T02:20:36.085Z,10.9
2017-12-31T02:21:37.490Z,10.9
2017-12-31T02:22:38.904Z,10.8
2017-12-31T02:23:40.406Z,10.8
2017-12-31T02:24:41.810Z,10.8
2017-12-31T02:25:43.212Z,10.8
2017-12-31T02:26:44.728Z,10.9
2017-12-31T02:27:46.137Z,10.9
2017-12-31T02:28:47.539Z,10.9
2017-12-31T02:29:48.945Z,10.8
2017-12-31T02:30:50.486Z,10.8
2017-12-31T02:31:51.910Z,10.8
2017-12-31T02:32:53.369Z,10.9
2017-12-31T02:33:54.801Z,10.8
2017-12-31T02:34:56.216Z,10.9
2017-12-31T02:35:57.690Z,10.8
2017-12-31T02:36:59.113Z,10.8
2017-12-31T02:38:00.512Z,10.9
2017-12-31T02:39:02.013Z,10.8
2017-12-31T02:40:03.413Z,10.9
2017-12-31T02:41:04.822Z,10.9
2017-12-31T02:42:06.332Z,10.8
2017-12-31T02:43:07.750Z,10.8
2017-12-31T02:44:09.181Z,10.7
2017-12-31T02:45:10.651Z,10.8
2017-12-31T02:46:12.074Z,10.8
2017-12-31T02:47:13.476Z,10.8
2017-12-31T02:48:14.973Z,10.7
2017-12-31T02:49:16.380Z,10.8
2017-12-31T02:50:17.785Z,10.8
2017-12-31T02:51:19.294Z,10.8
2017-12-31T02:52:20.756Z,10.8
2017-12-31T02:53:22.159Z,10.8
2017-12-31T02:54:23.727Z,10.7
2017-12-31T02:55:25.134Z,10.8
2017-12-31T02:56:26.700Z,10.8
2017-12-31T02:57:28.105Z,10.8
2017-12-31T02:58:29.582Z,10.7
2017-12-31T02:59:30.986Z,10.7
2017-12-31T03:00:32.462Z,10.7
2017-12-31T03:01:33.864Z,10.8
2017-12-31T03:02:35.344Z,10.7
2017-12-31T03:03:36.747Z,10.7
2017-12-31T03:04:38.225Z,10.7
2017-12-31T03:05:39.630Z,10.7
2017-12-31T03:06:41.104Z,10.7
2017-12-31T03:07:42.511Z,10.7
2017-12-31T03:08:43.915Z,10.7
2017-12-31T03:09:45.428Z,10.7
2017-12-31T03:10:46.834Z,10.8
2017-12-31T03:11:48.237Z,10.8
2017-12-31T03:12:50.773Z,10.7
2017-12-31T03:13:52.178Z,10.8
2017-12-31T03:14:53.583Z,10.8
2017-12-31T03:15:55.093Z,10.8
2017-12-31T03:16:56.495Z,10.7
2017-12-31T03:17:57.897Z,10.8
2017-12-31T03:18:59.415Z,10.8
2017-12-31T03:20:00.878Z,10.7
2017-12-31T03:21:02.499Z,10.8
2017-12-31T03:22:04.051Z,10.8
2017-12-31T03:23:05.585Z,10.8
2017-12-31T03:24:06.989Z,10.8
2017-12-31T03:25:08.384Z,10.8
2017-12-31T03:26:09.994Z,10.8
2017-12-31T03:27:11.398Z,10.8
2017-12-31T03:28:12.803Z,10.8
2017-12-31T03:29:14.433Z,10.8
2017-12-31T03:30:15.835Z,10.7
2017-12-31T03:31:17.242Z,10.8
2017-12-31T03:32:18.648Z,10.9
2017-12-31T03:33:20.194Z,10.8
2017-12-31T03:34:21.594Z,10.8
2017-12-31T03:35:23.007Z,10.8
2017-12-31T03:36:24.515Z,10.8
2017-12-31T03:37:25.918Z,10.9
2017-12-31T03:38:27.396Z,10.8
2017-12-31T03:39:28.798Z,10.8
2017-12-31T03:40:30.380Z,10.8
2017-12-31T03:41:31.791Z,10.8
2017-12-31T03:42:33.363Z,10.8
2017-12-31T03:43:34.799Z,10.8
2017-12-31T03:44:36.241Z,10.8
2017-12-31T03:45:37.645Z,10.7
2017-12-31T03:46:39.124Z,10.8
2017-12-31T03:47:40.526Z,10.8
2017-12-31T03:48:42.004Z,10.8
2017-12-31T03:49:43.409Z,10.9
2017-12-31T03:50:44.988Z,10.9
2017-12-31T03:51:46.388Z,10.8
2017-12-31T03:52:48.078Z,10.9
2017-12-31T03:53:49.480Z,10.7
2017-12-31T03:54:51.159Z,10.8
2017-12-31T03:55:52.563Z,10.8
2017-12-31T03:56:54.244Z,10.7
2017-12-31T03:57:55.648Z,10.8
2017-12-31T03:58:57.330Z,10.9
2017-12-31T03:59:58.786Z,10.8
2017-12-31T04:01:00.437Z,10.7
2017-12-31T04:02:01.843Z,10.8
2017-12-31T04:03:03.502Z,10.8
2017-12-31T04:04:04.905Z,10.8
2017-12-31T04:05:06.600Z,10.8
2017-12-31T04:06:08.006Z,10.8
2017-12-31T04:07:09.673Z,10.7
2017-12-31T04:08:11.076Z,10.7
2017-12-31T04:09:12.758Z,10.7
2017-12-31T04:10:14.161Z,10.8
2017-12-31T04:11:15.851Z,10.7
2017-12-31T04:12:17.245Z,10.7
2017-12-31T04:13:18.929Z,10.8
2017-12-31T04:14:20.332Z,10.7
2017-12-31T04:15:21.732Z,10.7
2017-12-31T04:16:23.250Z,10.8
2017-12-31T04:17:24.652Z,10.6
2017-12-31T04:18:26.058Z,10.7
2017-12-31T04:19:27.777Z,10.8
2017-12-31T04:20:29.177Z,10.7
2017-12-31T04:21:30.577Z,10.7
2017-12-31T04:22:32.098Z,10.8
2017-12-31T04:23:33.501Z,10.7
2017-12-31T04:24:34.904Z,10.7
2017-12-31T04:25:36.623Z,10.7
2017-12-31T04:26:38.056Z,10.6
2017-12-31T04:27:39.461Z,10.8
2017-12-31T04:28:41.151Z,10.8
2017-12-31T04:29:42.553Z,10.7
2017-12-31T04:30:43.955Z,10.7
2017-12-31T04:31:45.716Z,10.8
2017-12-31T04:32:47.119Z,10.8
2017-12-31T04:33:48.524Z,10.8
2017-12-31T04:34:50.202Z,10.8
2017-12-31T04:35:51.602Z,10.8
2017-12-31T04:36:53.005Z,10.8
2017-12-31T04:37:54.726Z,10.8
2017-12-31T04:38:56.131Z,10.8
2017-12-31T04:39:57.533Z,10.9
2017-12-31T04:40:59.256Z,10.9
2017-12-31T04:42:00.654Z,10.8
2017-12-31T04:43:02.339Z,10.9
2017-12-31T04:44:03.740Z,10.9
2017-12-31T04:45:05.157Z,10.9
2017-12-31T04:46:06.866Z,10.9
2017-12-31T04:47:08.268Z,11.0
2017-12-31T04:48:09.690Z,11.0
2017-12-31T04:49:11.188Z,11.1
2017-12-31T04:50:12.588Z,11.0
2017-12-31T04:51:13.988Z,11.1
2017-12-31T04:52:15.507Z,11.0
2017-12-31T04:53:16.911Z,10.9
2017-12-31T04:54:18.604Z,11.0
2017-12-31T04:55:20.007Z,11.1
2017-12-31T04:56:21.407Z,11.1
2017-12-31T04:57:23.140Z,11.1
2017-12-31T04:58:24.537Z,11.1
2017-12-31T04:59:25.938Z,11.2
2017-12-31T05:00:27.644Z,11.2
2017-12-31T05:01:29.055Z,11.1
2017-12-31T05:02:30.731Z,11.1
2017-12-31T05:03:32.132Z,11.2
2017-12-31T05:04:33.820Z,11.2
2017-12-31T05:05:35.223Z,11.3
2017-12-31T05:06:36.902Z,11.3
2017-12-31T05:07:38.303Z,11.3
2017-12-31T05:08:39.988Z,11.3
2017-12-31T05:09:41.392Z,11.3
2017-12-31T05:10:42.794Z,11.3
2017-12-31T05:11:44.516Z,11.3
2017-12-31T05:12:45.916Z,11.4
2017-12-31T05:13:47.319Z,11.3
2017-12-31T05:14:48.837Z,11.3
2017-12-31T05:15:50.248Z,11.4
2017-12-31T05:16:51.647Z,11.4
2017-12-31T05:17:53.055Z,11.3
2017-12-31T05:18:54.621Z,11.4
2017-12-31T05:19:56.024Z,11.5
2017-12-31T05:20:57.424Z,11.4
2017-12-31T05:21:58.971Z,11.5
2017-12-31T05:23:00.373Z,11.5
2017-12-31T05:24:01.778Z,11.5
2017-12-31T05:25:03.474Z,11.5
2017-12-31T05:26:04.896Z,11.5
2017-12-31T05:27:06.297Z,11.5
2017-12-31T05:28:07.972Z,11.5
2017-12-31T05:29:09.374Z,11.5
2017-12-31T05:30:10.782Z,11.5
2017-12-31T05:31:12.495Z,11.6
2017-12-31T05:32:13.901Z,11.5
2017-12-31T05:33:15.584Z,11.6
2017-12-31T05:34:16.990Z,11.6
2017-12-31T05:35:18.669Z,11.6
2017-12-31T05:36:20.075Z,11.6
2017-12-31T05:37:21.756Z,11.5
2017-12-31T05:38:23.161Z,11.6
2017-12-31T05:39:24.845Z,11.5
2017-12-31T05:40:26.264Z,11.5
2017-12-31T05:41:27.954Z,11.6
2017-12-31T05:42:29.325Z,11.6
2017-12-31T05:43:31.011Z,11.6
2017-12-31T05:44:32.417Z,11.7
2017-12-31T05:45:34.098Z,11.6
2017-12-31T05:46:35.518Z,11.7
2017-12-31T05:47:37.184Z,11.7
2017-12-31T05:48:38.587Z,11.7
2017-12-31T05:49:40.271Z,11.7
2017-12-31T05:50:41.675Z,11.7
2017-12-31T05:51:43.076Z,11.7
2017-12-31T05:52:44.795Z,11.8
2017-12-31T05:53:46.197Z,11.7
2017-12-31T05:54:47.599Z,11.7
2017-12-31T05:55:49.113Z,11.8
2017-12-31T05:56:50.516Z,11.8
2017-12-31T05:57:52.198Z,11.7
2017-12-31T05:58:53.600Z,11.8
2017-12-31T05:59:55.288Z,11.8
2017-12-31T06:00:56.681Z,11.8
2017-12-31T06:01:58.369Z,11.7
2017-12-31T06:02:59.770Z,11.8
2017-12-31T06:04:01.459Z,11.8
2017-12-31T06:05:02.852Z,11.8
2017-12-31T06:06:04.325Z,11.8
2017-12-31T06:07:05.997Z,11.8
2017-12-31T06:08:07.397Z,11.8
2017-12-31T06:09:08.803Z,11.8
2017-12-31T06:10:10.316Z,11.8
2017-12-31T06:11:11.719Z,11.8
2017-12-31T06:12:13.124Z,11.8
2017-12-31T06:13:14.830Z,11.8
2017-12-31T06:14:16.233Z,11.8
2017-12-31T06:15:17.634Z,11.8
2017-12-31T06:16:19.150Z,11.8
2017-12-31T06:17:20.549Z,11.8
2017-12-31T06:18:21.954Z,11.8
2017-12-31T06:19:23.471Z,11.8
2017-12-31T06:20:24.870Z,11.8
2017-12-31T06:21:26.276Z,11.8
2017-12-31T06:22:27.792Z,11.8
2017-12-31T06:23:29.191Z,11.8
2017-12-31T06:24:30.874Z,11.8
2017-12-31T06:25:32.276Z,11.8
2017-12-31T06:26:33.680Z,11.8
2017-12-31T06:27:35.221Z,11.8
2017-12-31T06:28:36.632Z,11.8
2017-12-31T06:29:38.034Z,11.8
2017-12-31T06:30:39.728Z,11.8
2017-12-31T06:31:41.123Z,11.8
2017-12-31T06:32:42.529Z,11.7
2017-12-31T06:33:44.052Z,11.8
2017-12-31T06:34:45.449Z,11.8
2017-12-31T06:35:46.856Z,11.7
2017-12-31T06:36:48.365Z,11.8
2017-12-31T06:37:49.764Z,11.8
2017-12-31T06:38:51.455Z,11.8
2017-12-31T06:39:52.853Z,11.7
2017-12-31T06:40:54.536Z,11.8
2017-12-31T06:41:55.962Z,11.8
2017-12-31T06:42:57.621Z,11.8
2017-12-31T06:43:59.022Z,11.8
2017-12-31T06:45:00.707Z,11.8
2017-12-31T06:46:02.109Z,11.7
2017-12-31T06:47:03.510Z,11.7
2017-12-31T06:48:05.027Z,11.7
2017-12-31T06:49:06.432Z,11.8
2017-12-31T06:50:07.845Z,11.7
2017-12-31T06:51:09.353Z,11.7
2017-12-31T06:52:10.751Z,11.7
2017-12-31T06:53:12.434Z,11.7
2017-12-31T06:54:13.869Z,11.7
2017-12-31T06:55:15.317Z,11.7
2017-12-31T06:56:16.719Z,11.8
2017-12-31T06:57:18.123Z,11.7
2017-12-31T06:58:19.639Z,11.7
2017-12-31T06:59:21.040Z,11.7
2017-12-31T07:00:22.454Z,11.7
2017-12-31T07:01:23.959Z,11.8
2017-12-31T07:02:25.364Z,11.7
2017-12-31T07:03:26.769Z,11.7
2017-12-31T07:04:28.276Z,11.7
2017-12-31T07:05:29.690Z,11.7
2017-12-31T07:06:31.094Z,11.7
2017-12-31T07:07:32.502Z,11.7
2017-12-31T07:08:34.054Z,11.7
2017-12-31T07:09:35.441Z,11.8
2017-12-31T07:10:36.847Z,11.7
2017-12-31T07:11:38.364Z,11.7
2017-12-31T07:12:39.765Z,11.7
2017-12-31T07:13:41.448Z,11.7
2017-12-31T07:14:42.899Z,11.7
2017-12-31T07:15:44.534Z,11.7
2017-12-31T07:16:45.940Z,11.7
2017-12-31T07:17:47.619Z,11.7
2017-12-31T07:18:49.025Z,11.7
2017-12-31T07:19:50.713Z,11.7
2017-12-31T07:20:52.108Z,11.7
2017-12-31T07:21:53.597Z,11.7
2017-12-31T07:22:55.000Z,11.7
2017-12-31T07:23:56.467Z,11.7
2017-12-31T07:24:57.871Z,11.7
2017-12-31T07:25:59.365Z,11.7
2017-12-31T07:27:00.768Z,11.7
2017-12-31T07:28:02.170Z,11.7
2017-12-31T07:29:03.673Z,11.7
2017-12-31T07:30:05.077Z,11.7
2017-12-31T07:31:06.479Z,11.7
2017-12-31T07:32:07.991Z,11.7
2017-12-31T07:33:09.395Z,11.7
2017-12-31T07:34:10.872Z,11.8
2017-12-31T07:35:12.273Z,11.7
2017-12-31T07:36:13.753Z,11.7
2017-12-31T07:37:15.154Z,11.7
2017-12-31T07:38:16.634Z,11.7
2017-12-31T07:39:18.036Z,11.7
2017-12-31T07:40:19.515Z,11.7
2017-12-31T07:41:20.915Z,11.8
2017-12-31T07:42:22.396Z,11.8
2017-12-31T07:43:23.797Z,11.7
2017-12-31T07:44:25.275Z,11.7
2017-12-31T07:45:26.679Z,11.8
2017-12-31T07:46:28.170Z,11.7
2017-12-31T07:47:29.574Z,11.8
2017-12-31T07:48:30.977Z,11.8
2017-12-31T07:49:32.468Z,11.8
2017-12-31T07:50:33.878Z,11.7
2017-12-31T07:51:35.290Z,11.8
2017-12-31T07:52:36.800Z,11.8
2017-12-31T07:53:38.208Z,11.8
2017-12-31T07:54:39.718Z,11.8
2017-12-31T07:55:41.158Z,11.8
2017-12-31T07:56:42.664Z,11.8
2017-12-31T07:57:44.074Z,11.9
2017-12-31T07:58:45.614Z,11.9
2017-12-31T07:59:47.021Z,11.9
2017-12-31T08:00:48.528Z,11.8
2017-12-31T08:01:49.936Z,11.8
2017-12-31T08:02:51.408Z,11.9
2017-12-31T08:03:52.812Z,11.9
2017-12-31T08:04:54.291Z,11.9
2017-12-31T08:05:55.698Z,11.8
2017-12-31T08:06:57.199Z,11.9
2017-12-31T08:07:58.598Z,11.9
2017-12-31T08:09:00.052Z,11.9
2017-12-31T08:10:01.456Z,11.9
2017-12-31T08:11:03.136Z,12.0
2017-12-31T08:12:04.542Z,11.9
2017-12-31T08:13:06.223Z,11.9
2017-12-31T08:14:07.632Z,11.9
2017-12-31T08:15:09.310Z,12.0
2017-12-31T08:16:10.719Z,12.0
2017-12-31T08:17:12.418Z,12.0
2017-12-31T08:18:13.822Z,11.9
2017-12-31T08:19:15.229Z,12.0
2017-12-31T08:20:16.920Z,11.9
2017-12-31T08:21:18.328Z,11.9
2017-12-31T08:22:19.757Z,12.0
2017-12-31T08:23:21.493Z,12.1
2017-12-31T08:24:22.906Z,12.1
2017-12-31T08:25:24.312Z,12.1
2017-12-31T08:26:25.767Z,12.1
2017-12-31T08:27:27.178Z,12.1
2017-12-31T08:28:28.585Z,12.1
2017-12-31T08:29:30.088Z,12.0
2017-12-31T08:30:31.498Z,11.9
2017-12-31T08:31:32.906Z,12.0
2017-12-31T08:32:34.409Z,12.1
2017-12-31T08:33:35.820Z,12.0
2017-12-31T08:34:37.298Z,11.9
2017-12-31T08:35:38.710Z,11.9
2017-12-31T08:36:40.172Z,12.0
2017-12-31T08:37:41.578Z,12.0
2017-12-31T08:38:43.052Z,12.0
2017-12-31T08:39:44.456Z,12.0
2017-12-31T08:40:45.940Z,12.0
2017-12-31T08:41:47.337Z,12.0
2017-12-31T08:42:48.814Z,12.0
2017-12-31T08:43:50.221Z,12.0
2017-12-31T08:44:51.694Z,12.0
2017-12-31T08:45:53.098Z,12.0
2017-12-31T08:46:54.574Z,12.1
2017-12-31T08:47:56.053Z,12.2
2017-12-31T08:48:57.458Z,12.2
2017-12-31T08:49:58.865Z,12.1
2017-12-31T08:51:00.336Z,12.1
2017-12-31T08:52:01.744Z,12.1
2017-12-31T08:53:03.147Z,12.1
2017-12-31T08:54:04.656Z,12.1
2017-12-31T08:55:06.068Z,12.2
2017-12-31T08:56:07.471Z,12.2
2017-12-31T08:57:08.980Z,12.2
2017-12-31T08:58:10.771Z,12.3
2017-12-31T08:59:12.179Z,12.3
2017-12-31T09:00:13.606Z,12.3
2017-12-31T09:01:15.011Z,12.2
2017-12-31T09:02:16.488Z,12.2
2017-12-31T09:03:17.891Z,12.2
2017-12-31T09:04:19.296Z,12.2
2017-12-31T09:05:20.812Z,12.3
2017-12-31T09:06:22.230Z,12.3
2017-12-31T09:07:23.626Z,12.2
2017-12-31T09:08:25.132Z,12.3
2017-12-31T09:09:26.535Z,12.3
2017-12-31T09:10:27.943Z,12.2
2017-12-31T09:11:29.451Z,12.3
2017-12-31T09:12:30.855Z,12.2
2017-12-31T09:13:32.260Z,12.3
2017-12-31T09:14:33.772Z,12.2
2017-12-31T09:15:35.187Z,12.3
2017-12-31T09:16:36.595Z,12.2
2017-12-31T09:17:38.093Z,12.3
2017-12-31T09:18:39.503Z,12.3
2017-12-31T09:19:40.907Z,12.3
2017-12-31T09:20:42.417Z,12.3
2017-12-31T09:21:43.818Z,12.3
2017-12-31T09:22:45.224Z,12.4
2017-12-31T09:23:46.656Z,12.4
2017-12-31T09:24:48.074Z,12.4
2017-12-31T09:25:49.476Z,12.4
2017-12-31T09:26:50.967Z,12.5
2017-12-31T09:27:52.378Z,12.5
2017-12-31T09:28:53.836Z,12.6
2017-12-31T09:29:55.244Z,12.6
2017-12-31T09:30:56.718Z,12.6
2017-12-31T09:31:58.127Z,12.6
2017-12-31T09:32:59.607Z,12.7
2017-12-31T09:34:01.034Z,12.7
2017-12-31T09:35:02.442Z,12.8
2017-12-31T09:36:03.992Z,12.8
2017-12-31T09:37:05.397Z,12.8
2017-12-31T09:38:06.805Z,12.7
2017-12-31T09:39:08.272Z,12.7
2017-12-31T09:40:09.676Z,12.8
2017-12-31T09:41:11.086Z,12.8
2017-12-31T09:42:12.559Z,12.8
2017-12-31T09:45:48.047Z,12.8
2017-12-31T09:46:50.558Z,12.9
2017-12-31T09:47:53.766Z,12.9
2017-12-31T09:48:55.165Z,13.0
2017-12-31T09:49:56.862Z,13.0
2017-12-31T09:50:58.278Z,12.9
2017-12-31T09:51:59.931Z,12.9
2017-12-31T09:53:01.366Z,13.0
2017-12-31T09:54:02.829Z,12.9
2017-12-31T09:55:04.244Z,13.0
2017-12-31T09:56:05.691Z,12.9
2017-12-31T09:57:07.132Z,12.9
2017-12-31T09:58:08.592Z,12.8
2017-12-31T09:59:09.996Z,12.8
2017-12-31T10:00:11.404Z,12.7
2017-12-31T10:01:12.898Z,12.8
2017-12-31T10:02:14.367Z,12.8
2017-12-31T10:03:15.753Z,12.8
2017-12-31T10:04:17.217Z,12.8
2017-12-31T10:05:18.624Z,12.8
2017-12-31T10:06:20.038Z,12.9
2017-12-31T10:07:21.544Z,12.9
2017-12-31T10:08:22.947Z,12.9
2017-12-31T10:09:24.355Z,12.8
2017-12-31T10:10:25.857Z,12.9
2017-12-31T10:11:27.265Z,12.9
2017-12-31T10:12:28.676Z,12.8
2017-12-31T10:13:30.199Z,12.8
2017-12-31T10:14:31.617Z,12.8
2017-12-31T10:15:33.024Z,12.9
2017-12-31T10:16:34.708Z,12.9
2017-12-31T10:17:36.121Z,12.9
2017-12-31T10:18:37.586Z,12.9
2017-12-31T10:19:38.996Z,12.9
2017-12-31T10:20:40.467Z,13.0
2017-12-31T10:21:41.915Z,13.0
2017-12-31T10:22:43.325Z,13.0
2017-12-31T10:23:44.788Z,13.0
2017-12-31T10:24:46.197Z,13.1
2017-12-31T10:25:47.601Z,13.0
2017-12-31T10:26:49.123Z,13.0
2017-12-31T10:27:50.529Z,13.0
2017-12-31T10:28:51.931Z,13.1
2017-12-31T10:29:53.430Z,13.2
2017-12-31T10:30:54.850Z,13.2
2017-12-31T10:31:56.254Z,13.3
2017-12-31T10:32:57.750Z,13.4
2017-12-31T10:33:59.155Z,13.3
2017-12-31T10:35:00.563Z,13.2
2017-12-31T10:36:02.074Z,13.4
2017-12-31T10:37:03.495Z,13.5
2017-12-31T10:38:05.182Z,13.6
2017-12-31T10:39:06.594Z,13.6
2017-12-31T10:40:08.001Z,13.8
2017-12-31T10:41:09.693Z,13.8
2017-12-31T10:42:11.116Z,13.7
2017-12-31T10:43:12.521Z,13.8
2017-12-31T10:44:14.046Z,13.8
2017-12-31T10:45:15.414Z,13.9
2017-12-31T10:46:17.095Z,13.9
2017-12-31T10:47:18.503Z,13.8
2017-12-31T10:48:20.178Z,14.0
2017-12-31T10:49:21.588Z,14.1
2017-12-31T10:50:23.022Z,14.0
2017-12-31T10:51:24.710Z,14.0
2017-12-31T10:52:26.117Z,13.9
2017-12-31T10:53:27.540Z,13.9
2017-12-31T10:54:29.242Z,13.9
2017-12-31T10:55:30.660Z,13.9
2017-12-31T10:56:32.313Z,13.9
2017-12-31T10:57:33.718Z,13.8
2017-12-31T10:58:35.195Z,13.9
2017-12-31T10:59:40.910Z,13.9
2017-12-31T11:00:42.608Z,13.9
2017-12-31T11:01:43.993Z,13.9
2017-12-31T11:02:45.458Z,14.0
2017-12-31T11:03:46.906Z,14.1
2017-12-31T11:04:49.792Z,14.3
2017-12-31T11:05:51.200Z,14.3
2017-12-31T11:06:52.863Z,14.4
2017-12-31T11:07:54.335Z,14.4
2017-12-31T11:08:55.750Z,14.3
2017-12-31T11:09:57.424Z,14.4
2017-12-31T11:10:58.836Z,14.5
2017-12-31T11:12:00.242Z,14.6
2017-12-31T11:13:01.914Z,14.5
2017-12-31T11:14:03.323Z,14.5
2017-12-31T11:15:04.751Z,14.5
2017-12-31T11:16:06.253Z,14.5
2017-12-31T11:17:07.665Z,14.5
2017-12-31T11:18:09.323Z,14.5
2017-12-31T11:19:10.729Z,14.4
2017-12-31T11:20:12.614Z,14.4
2017-12-31T11:21:14.019Z,14.5
2017-12-31T11:22:15.702Z,14.4
2017-12-31T11:23:17.110Z,14.3
2017-12-31T11:24:18.782Z,14.3
2017-12-31T11:25:20.195Z,14.4
2017-12-31T11:26:21.600Z,14.4
2017-12-31T11:27:23.129Z,14.3
2017-12-31T11:28:24.537Z,14.3
2017-12-31T11:29:25.945Z,14.2
2017-12-31T11:30:27.422Z,14.4
2017-12-31T11:31:28.833Z,14.3
2017-12-31T11:32:30.243Z,14.1
2017-12-31T11:33:31.743Z,14.2
2017-12-31T11:34:33.153Z,14.2
2017-12-31T11:35:34.560Z,14.3
2017-12-31T11:36:36.078Z,14.4
2017-12-31T11:37:37.487Z,14.2
2017-12-31T11:38:38.906Z,14.3
2017-12-31T11:39:40.389Z,14.4
2017-12-31T11:40:41.796Z,14.3
2017-12-31T11:41:43.206Z,14.3
2017-12-31T11:42:44.726Z,14.4
2017-12-31T11:43:46.143Z,14.4
2017-12-31T11:44:47.547Z,14.4
2017-12-31T11:45:49.043Z,14.3
2017-12-31T11:46:50.451Z,14.3
2017-12-31T11:47:51.860Z,14.3
2017-12-31T11:48:53.371Z,14.3
2017-12-31T11:49:54.753Z,14.3
2017-12-31T11:50:56.169Z,14.3
2017-12-31T11:51:57.675Z,14.3
2017-12-31T11:52:59.094Z,14.3
2017-12-31T11:54:00.504Z,14.4
2017-12-31T11:55:01.997Z,14.3
2017-12-31T11:56:03.404Z,14.3
2017-12-31T11:57:04.874Z,14.4
2017-12-31T11:58:06.282Z,14.3
2017-12-31T11:59:07.802Z,14.3
2017-12-31T12:00:09.235Z,14.3
2017-12-31T12:01:10.750Z,14.5
2017-12-31T12:02:12.183Z,14.5
2017-12-31T12:03:13.622Z,14.5
2017-12-31T12:04:15.022Z,14.6
2017-12-31T12:05:16.511Z,14.5
2017-12-31T12:06:17.928Z,14.7
2017-12-31T12:07:20.012Z,14.5
2017-12-31T12:08:21.443Z,14.5
2017-12-31T12:09:22.886Z,14.6
2017-12-31T12:10:24.294Z,14.5
2017-12-31T12:11:25.701Z,14.4
2017-12-31T12:12:27.157Z,14.5
2017-12-31T12:13:28.663Z,14.5
2017-12-31T12:14:30.511Z,14.4
2017-12-31T12:15:31.925Z,14.5
2017-12-31T12:16:33.368Z,14.5
2017-12-31T12:17:34.782Z,14.5
2017-12-31T12:20:42.062Z,14.7
2017-12-31T12:21:43.508Z,14.7
2017-12-31T12:22:44.879Z,14.7
2017-12-31T12:23:46.321Z,14.6
2017-12-31T12:24:47.736Z,14.5
2017-12-31T12:25:49.145Z,14.4
2017-12-31T12:26:50.651Z,14.3
2017-12-31T12:27:52.060Z,14.3
2017-12-31T12:28:53.466Z,14.4
2017-12-31T12:29:54.962Z,14.3
2017-12-31T12:30:56.373Z,14.3
2017-12-31T12:31:57.808Z,14.3
2017-12-31T12:32:59.310Z,14.5
2017-12-31T12:34:00.741Z,14.5
2017-12-31T12:35:02.149Z,14.6
2017-12-31T12:36:03.614Z,14.5
2017-12-31T12:37:05.024Z,14.5
2017-12-31T12:38:06.427Z,14.5
2017-12-31T12:39:07.925Z,14.5
2017-12-31T12:40:09.349Z,14.4
2017-12-31T12:41:10.756Z,14.2
2017-12-31T12:42:12.246Z,14.3
2017-12-31T12:43:13.661Z,14.3
2017-12-31T12:44:15.070Z,14.3
2017-12-31T12:45:16.586Z,14.3
2017-12-31T12:46:18.006Z,14.4
2017-12-31T12:47:19.427Z,14.4
2017-12-31T12:48:20.889Z,14.4
2017-12-31T12:49:22.300Z,14.4
2017-12-31T12:50:23.711Z,14.4
2017-12-31T12:51:25.255Z,14.5
2017-12-31T12:52:26.706Z,14.5
2017-12-31T12:53:28.091Z,14.5
2017-12-31T12:54:29.541Z,14.6
2017-12-31T12:55:30.950Z,14.5
2017-12-31T12:56:32.370Z,14.5
2017-12-31T12:57:33.852Z,14.5
2017-12-31T12:58:35.265Z,14.6
2017-12-31T12:59:36.734Z,14.5
2017-12-31T13:00:38.146Z,14.5
2017-12-31T13:01:39.557Z,14.4
2017-12-31T13:02:41.078Z,14.5
2017-12-31T13:03:42.546Z,14.5
2017-12-31T13:04:43.956Z,14.6
2017-12-31T13:05:45.377Z,14.6
2017-12-31T13:06:46.788Z,14.6
2017-12-31T13:07:48.204Z,14.5
2017-12-31T13:08:49.699Z,14.6
2017-12-31T13:09:51.111Z,14.5
2017-12-31T13:10:52.542Z,14.5
2017-12-31T13:11:54.020Z,14.7
2017-12-31T13:12:55.433Z,14.6
2017-12-31T13:13:56.900Z,14.6
2017-12-31T13:14:58.307Z,14.6
2017-12-31T13:15:59.784Z,14.6
2017-12-31T13:17:01.194Z,14.6
2017-12-31T13:18:02.658Z,14.6
2017-12-31T13:19:04.064Z,14.5
2017-12-31T13:20:05.539Z,14.5
2017-12-31T13:21:06.973Z,14.5
2017-12-31T13:22:08.383Z,14.5
2017-12-31T13:23:09.872Z,14.5
2017-12-31T13:24:11.274Z,14.5
2017-12-31T13:25:12.679Z,14.5
2017-12-31T13:26:14.199Z,14.4
2017-12-31T13:27:15.586Z,14.4
2017-12-31T13:28:17.063Z,14.4
2017-12-31T13:29:18.475Z,14.4
2017-12-31T13:30:19.959Z,14.5
2017-12-31T13:31:21.369Z,14.5
2017-12-31T13:32:22.824Z,14.4
2017-12-31T13:33:24.250Z,14.5
2017-12-31T13:34:25.706Z,14.5
2017-12-31T13:35:27.142Z,14.4
2017-12-31T13:36:28.687Z,14.4
2017-12-31T13:37:30.096Z,14.3
2017-12-31T13:38:31.501Z,14.3
2017-12-31T13:39:33.010Z,14.4
2017-12-31T13:40:34.444Z,14.4
2017-12-31T13:41:35.848Z,14.4
2017-12-31T13:42:37.330Z,14.4